Lake Pleasant, New York
Current Conditions -  °F | °C
As of 12:35 PM on Saturday 25 Oct 2014 (Local Time) from KNY0 Reporting Station
Broken Clouds Broken Clouds  
Wind Chill: 53°   Ceiling: 5500
Heat Index: 53°   Visibility: 10mi
Dew Point: 44°   Wind: 8mph
Humidity: 71%   Direction: 240°WSW
Pressure: 29.73"   Gusts: NA
Location:  43.47°N, 74.41°W
Report Text: KNY0 251635Z AUTO 24007KT 10SM SCT022 BKN055 12/06 A2973 RMK AO2 T01160064
Loading
Personal Weather Stations






























Interactive Weather Map
Tropical Storm Tracking
New forecast layout! Learn more

10-Day Weather Forecast

Advertisements
Track Severe Weather on mobile